Terminal Aerodrome Forecast
Issued by NWS Bismarck, ND

Home | Current Version | Previous Version | Graphics & Text | Print | Product List | Glossary On
Versions: 1 2 3 4 5 6 7 8 9 10 11 12 13
268
FTUS43 KBIS 021136
TAFBIS
TAF
KBIS 021136Z 0212/0312 22006KT P6SM -SHRA BKN080
     FM021500 27005KT P6SM BKN080
     FM021700 35005KT P6SM VCTS SCT080CB
     FM022200 05005KT P6SM SCT070
     FM030000 07005KT P6SM FEW250
     FM030600 VRB03KT P6SM FEW250=

USA.gov is the U.S. government's official web portal to all federal, state and local government web resources and services.